createdAt,value
2022-11-25T00:03:21.892Z,25.15
2022-11-25T00:08:16.081Z,22.38
2022-11-25T00:13:10.645Z,17.70
2022-11-25T00:18:05.248Z,18.95
2022-11-25T00:22:59.191Z,18.70
2022-11-25T00:27:54.188Z,19.55
2022-11-25T00:32:50.961Z,19.23
2022-11-25T00:37:44.950Z,20.45
2022-11-25T00:43:09.035Z,21.17
2022-11-25T00:52:56.144Z,20.50
2022-11-25T00:57:49.801Z,21.07
2022-11-25T01:02:43.668Z,20.60
2022-11-25T01:07:39.997Z,19.02
2022-11-25T01:12:33.835Z,20.42
2022-11-25T01:22:25.312Z,20.65
2022-11-25T01:27:19.491Z,21.35
2022-11-25T01:37:07.127Z,20.77
2022-11-25T01:42:01.402Z,23.80
2022-11-25T01:47:12.472Z,23.90
2022-11-25T01:52:19.380Z,20.92
2022-11-25T01:57:34.002Z,27.40
2022-11-25T02:02:27.817Z,26.00
2022-11-25T02:07:30.732Z,26.73
2022-11-25T02:12:24.373Z,21.13
2022-11-25T02:17:17.052Z,21.90
2022-11-25T02:22:14.071Z,21.63
2022-11-25T02:27:07.506Z,22.27
2022-11-25T02:32:01.714Z,20.70
2022-11-25T02:36:54.526Z,24.02
2022-11-25T02:41:56.021Z,20.87
2022-11-25T02:46:49.968Z,22.13
2022-11-25T02:51:46.659Z,22.88
2022-11-25T02:56:40.860Z,21.02
2022-11-25T03:01:35.823Z,19.25
2022-11-25T03:06:32.512Z,19.42
2022-11-25T03:11:45.803Z,19.40
2022-11-25T03:16:40.482Z,18.58
2022-11-25T03:21:34.462Z,18.77
2022-11-25T03:26:28.291Z,18.15
2022-11-25T03:31:21.512Z,18.38
2022-11-25T03:36:14.688Z,19.50
2022-11-25T03:41:08.431Z,17.88
2022-11-25T03:46:02.877Z,17.45
2022-11-25T03:50:57.567Z,15.35
2022-11-25T03:55:53.540Z,17.02
2022-11-25T04:00:49.525Z,17.25
2022-11-25T04:05:43.944Z,16.42
2022-11-25T04:10:38.467Z,17.55
2022-11-25T04:15:33.534Z,16.33
2022-11-25T04:20:28.189Z,18.60
2022-11-25T04:25:27.693Z,17.70
2022-11-25T04:30:21.429Z,16.67
2022-11-25T04:35:16.388Z,18.02
2022-11-25T04:40:15.572Z,21.52
2022-11-25T04:45:24.848Z,15.60
2022-11-25T04:50:24.942Z,15.68
2022-11-25T04:55:25.046Z,21.13
2022-11-25T05:00:22.297Z,20.73
2022-11-25T05:05:15.753Z,15.82
2022-11-25T05:10:12.850Z,18.90
2022-11-25T05:15:13.299Z,17.45
2022-11-25T05:20:10.960Z,19.77
2022-11-25T05:25:06.452Z,16.13
2022-11-25T05:30:05.999Z,18.20
2022-11-25T05:34:59.421Z,19.02
2022-11-25T05:39:53.728Z,18.50
2022-11-25T05:45:02.588Z,18.92
2022-11-25T05:49:57.758Z,18.88
2022-11-25T05:54:56.767Z,16.35
2022-11-25T05:59:53.081Z,20.48
2022-11-25T06:05:14.906Z,20.20
2022-11-25T06:10:09.871Z,25.07
2022-11-25T06:15:09.164Z,20.20
2022-11-25T06:20:08.590Z,20.90
2022-11-25T06:25:04.099Z,19.15
2022-11-25T06:30:00.677Z,20.15
2022-11-25T06:34:54.972Z,22.17
2022-11-25T06:40:16.193Z,20.75
2022-11-25T06:45:24.875Z,19.58
2022-11-25T06:50:18.595Z,23.02
2022-11-25T06:55:12.211Z,27.65
2022-11-25T07:05:01.170Z,18.70
2022-11-25T07:09:55.323Z,16.65
2022-11-25T07:19:46.254Z,19.10
2022-11-25T07:24:40.110Z,18.92
2022-11-25T07:29:57.898Z,18.40
2022-11-25T07:34:52.466Z,20.17
2022-11-25T07:39:46.352Z,21.73
2022-11-25T07:44:40.498Z,19.50
2022-11-25T07:49:56.430Z,19.92
2022-11-25T07:54:50.790Z,22.40
2022-11-25T07:59:45.246Z,20.05
2022-11-25T08:04:38.098Z,21.63
2022-11-25T08:09:32.507Z,19.75
2022-11-25T08:14:26.534Z,20.38
2022-11-25T08:19:20.756Z,21.55
2022-11-25T08:29:15.585Z,22.75
2022-11-25T08:34:08.922Z,24.38
2022-11-25T08:39:22.524Z,23.15
2022-11-25T08:44:19.068Z,20.95
2022-11-25T08:49:13.478Z,19.73
2022-11-25T08:54:08.711Z,18.13
2022-11-25T08:59:03.037Z,17.95
2022-11-25T09:03:58.700Z,19.20
2022-11-25T09:08:54.542Z,18.98
2022-11-25T09:13:50.159Z,20.98
2022-11-25T09:23:36.149Z,21.95
2022-11-25T09:28:29.028Z,25.13
2022-11-25T09:38:20.232Z,21.35
2022-11-25T09:43:39.311Z,22.75
2022-11-25T09:48:54.293Z,23.00
2022-11-25T09:53:54.330Z,29.27
2022-11-25T09:59:18.290Z,29.40
2022-11-25T10:04:18.243Z,30.08
2022-11-25T10:09:16.606Z,29.08
2022-11-25T10:14:54.364Z,31.58
2022-11-25T10:20:00.009Z,37.85
2022-11-25T10:24:58.398Z,35.65
2022-11-25T10:30:02.766Z,32.75
2022-11-25T10:40:15.538Z,30.75
2022-11-25T10:45:11.732Z,29.00
2022-11-25T10:50:24.368Z,31.08
2022-11-25T10:55:18.521Z,34.53
2022-11-25T11:00:41.428Z,31.55
2022-11-25T11:05:35.377Z,31.23
2022-11-25T11:10:29.679Z,28.52
2022-11-25T11:15:31.538Z,30.92
2022-11-25T11:20:49.065Z,29.92
2022-11-25T11:25:55.094Z,30.05
2022-11-25T11:31:44.328Z,29.00
2022-11-25T11:37:09.743Z,32.55
2022-11-25T11:42:27.959Z,36.00
2022-11-25T11:47:33.865Z,34.35
2022-11-25T11:52:33.545Z,34.10
2022-11-25T11:58:04.402Z,38.25
2022-11-25T12:03:06.410Z,37.33
2022-11-25T12:08:19.394Z,36.08
2022-11-25T12:13:18.077Z,38.72
2022-11-25T12:18:41.853Z,36.97
2022-11-25T12:23:47.592Z,37.55
2022-11-25T12:28:53.553Z,35.28
2022-11-25T12:33:53.022Z,37.28
2022-11-25T12:38:51.754Z,40.28
2022-11-25T12:43:45.119Z,41.15
2022-11-25T12:48:41.986Z,40.97
2022-11-25T12:54:00.701Z,40.85
2022-11-25T12:59:25.083Z,41.40
2022-11-25T13:04:48.898Z,43.33
2022-11-25T13:15:00.520Z,48.78
2022-11-25T13:20:25.134Z,46.08
2022-11-25T13:25:27.830Z,44.70
2022-11-25T13:30:32.928Z,44.23
2022-11-25T13:35:32.660Z,42.90
2022-11-25T13:40:30.417Z,47.28
2022-11-25T13:45:28.736Z,52.80
2022-11-25T13:50:41.680Z,50.95
2022-11-25T13:55:39.728Z,52.60
2022-11-25T14:01:13.020Z,50.55
2022-11-25T14:06:29.085Z,52.17
2022-11-25T14:11:43.762Z,55.53
2022-11-25T14:16:48.197Z,53.88
2022-11-25T14:21:53.607Z,53.80
2022-11-25T14:26:50.281Z,56.83
2022-11-25T14:31:48.341Z,56.05
2022-11-25T14:36:44.898Z,54.38
2022-11-25T14:42:07.832Z,60.80
2022-11-25T14:47:04.795Z,60.80
2022-11-25T14:51:58.611Z,61.95
2022-11-25T14:56:51.961Z,64.70
2022-11-25T15:01:55.410Z,62.75
2022-11-25T15:07:03.229Z,65.97
2022-11-25T15:12:02.550Z,67.18
2022-11-25T15:16:56.643Z,89.05
2022-11-25T15:27:18.015Z,88.00
2022-11-25T15:32:38.942Z,78.65
2022-11-25T15:37:33.376Z,80.47
2022-11-25T15:42:28.769Z,83.03
2022-11-25T15:47:29.822Z,99.57
2022-11-25T15:52:23.474Z,115.03
2022-11-25T15:57:36.087Z,84.93
2022-11-25T16:02:44.484Z,73.95
2022-11-25T16:07:40.441Z,79.22
2022-11-25T16:12:34.675Z,81.50
2022-11-25T16:17:29.111Z,92.65
2022-11-25T16:22:22.685Z,90.15
2022-11-25T16:32:19.854Z,92.18
2022-11-25T16:37:13.467Z,90.97
2022-11-25T16:47:05.235Z,85.10
2022-11-25T16:51:58.917Z,91.57
2022-11-25T16:56:56.603Z,114.63
2022-11-25T17:01:51.892Z,95.32
2022-11-25T17:06:50.517Z,90.70
2022-11-25T17:11:58.236Z,85.03
2022-11-25T17:16:52.881Z,92.20
2022-11-25T17:21:47.546Z,82.85
2022-11-25T17:26:43.214Z,92.95
2022-11-25T17:31:38.690Z,107.97
2022-11-25T17:36:33.957Z,106.30
2022-11-25T17:41:28.043Z,112.47
2022-11-25T17:46:22.398Z,102.70
2022-11-25T17:51:16.165Z,112.53
2022-11-25T17:56:27.180Z,101.63
2022-11-25T18:01:22.018Z,107.30
2022-11-25T18:06:15.785Z,111.47
2022-11-25T18:11:09.654Z,117.55
2022-11-25T18:16:03.310Z,93.68
2022-11-25T18:20:57.020Z,100.57
2022-11-25T18:25:51.213Z,100.35
2022-11-25T18:30:45.594Z,85.40
2022-11-25T18:35:39.005Z,79.30
2022-11-25T18:45:28.762Z,84.95
2022-11-25T18:50:26.835Z,86.57
2022-11-25T18:55:22.383Z,73.78
2022-11-25T19:00:33.276Z,81.70
2022-11-25T19:05:30.401Z,83.57
2022-11-25T19:10:28.988Z,86.75
2022-11-25T19:15:23.808Z,85.07
2022-11-25T19:20:19.909Z,90.10
2022-11-25T19:25:14.490Z,95.68
2022-11-25T19:30:17.985Z,83.50
2022-11-25T19:35:14.489Z,95.13
2022-11-25T19:40:19.045Z,83.45
2022-11-25T19:45:16.630Z,90.15
2022-11-25T19:50:33.387Z,99.00
2022-11-25T19:55:32.514Z,91.70
2022-11-25T20:00:25.537Z,105.10
2022-11-25T20:05:26.145Z,89.65
2022-11-25T20:10:30.325Z,104.65
2022-11-25T20:20:19.570Z,100.70
2022-11-25T20:25:13.773Z,102.18
2022-11-25T20:30:16.549Z,111.03
2022-11-25T20:35:12.128Z,102.27
2022-11-25T20:40:14.373Z,103.35
2022-11-25T20:45:17.108Z,101.57
2022-11-25T20:50:14.276Z,102.00
2022-11-25T20:55:17.537Z,94.85
2022-11-25T21:00:16.540Z,106.72
2022-11-25T21:05:10.802Z,95.00
2022-11-25T21:10:04.134Z,96.72
2022-11-25T21:14:58.033Z,187.75
2022-11-25T21:19:52.392Z,120.15
2022-11-25T21:24:46.706Z,435.27
2022-11-25T21:29:41.748Z,122.68
2022-11-25T21:34:36.016Z,106.45
2022-11-25T21:39:33.903Z,93.75
2022-11-25T21:44:47.513Z,97.55
2022-11-25T21:49:41.607Z,92.82
2022-11-25T21:54:35.360Z,90.45
2022-11-25T21:59:30.277Z,93.03
2022-11-25T22:04:24.416Z,93.80
2022-11-25T22:09:18.745Z,90.65
2022-11-25T22:14:37.877Z,93.88
2022-11-25T22:19:32.485Z,98.47
2022-11-25T22:24:26.951Z,105.30
2022-11-25T22:29:23.524Z,97.80
2022-11-25T22:34:18.893Z,106.38
2022-11-25T22:39:22.043Z,110.07
2022-11-25T22:44:30.936Z,102.25
2022-11-25T22:49:49.080Z,108.07
2022-11-25T22:54:43.617Z,99.28
2022-11-25T22:59:37.007Z,101.18
2022-11-25T23:04:31.359Z,106.63
2022-11-25T23:09:25.838Z,104.30
2022-11-25T23:14:19.175Z,107.65
2022-11-25T23:19:15.214Z,105.30
2022-11-25T23:24:17.009Z,101.68
2022-11-25T23:29:11.259Z,105.03
2022-11-25T23:34:06.095Z,100.63
2022-11-25T23:39:04.332Z,106.43
2022-11-25T23:43:59.911Z,105.43
2022-11-25T23:49:29.055Z,104.47
2022-11-25T23:54:23.681Z,101.72
2022-11-25T23:59:18.248Z,100.43
